Time;durP1;ratioP1;P1;durP2;ratioP2;P2;SDS_P1;SDS_P2;PMS_P1;PMS_P2;Temp;Humidity;BMP_temperature;BMP_pressure;BME280_temperature;BME280_humidity;BME280_pressure;Samples;Min_cycle;Max_cycle;Signal;HPM_P1;HPM_P2
2023/05/17 00:01:26;;;;;;;22.30;4.40;;;;;;;7.53;100.00;102658.72;5135475;27;20062;-75
2023/05/17 00:03:55;;;;;;;14.85;3.55;;;;;;;7.55;100.00;102659.53;5135664;27;20055;-75
2023/05/17 00:06:20;;;;;;;15.05;4.07;;;;;;;7.54;100.00;102673.69;5135307;27;20027;-75
2023/05/17 00:08:46;;;;;;;17.20;4.18;;;;;;;7.56;100.00;102673.59;5134919;27;20502;-74
2023/05/17 00:11:11;;;;;;;13.88;3.95;;;;;;;7.57;100.00;102680.63;5134531;27;20070;-72
2023/05/17 00:13:37;;;;;;;13.98;3.88;;;;;;;7.57;100.00;102685.94;5135793;27;20443;-73
2023/05/17 00:16:03;;;;;;;27.60;3.60;;;;;;;7.57;100.00;102670.88;5135536;27;20039;-74
2023/05/17 00:18:28;;;;;;;23.15;3.97;;;;;;;7.61;100.00;102694.56;5135235;27;20104;-74
2023/05/17 00:20:54;;;;;;;23.10;3.83;;;;;;;7.64;100.00;102689.13;5135022;27;20034;-75
2023/05/17 00:23:19;;;;;;;17.23;4.43;;;;;;;7.67;100.00;102689.81;5135240;27;20110;-74
2023/05/17 00:25:45;;;;;;;17.33;4.75;;;;;;;7.71;100.00;102679.94;5135385;27;20051;-74
2023/05/17 00:28:11;;;;;;;19.42;3.95;;;;;;;7.77;100.00;102671.69;5134941;27;20444;-74
2023/05/17 00:30:36;;;;;;;18.33;4.10;;;;;;;7.80;100.00;102660.09;5134976;27;20096;-74
2023/05/17 00:33:01;;;;;;;20.83;3.72;;;;;;;7.81;100.00;102678.56;5134679;27;20052;-74
2023/05/17 00:35:27;;;;;;;23.00;4.05;;;;;;;7.83;100.00;102666.09;5134850;27;20069;-74
2023/05/17 00:37:52;;;;;;;16.17;4.10;;;;;;;7.83;100.00;102675.84;5134811;27;20065;-74
2023/05/17 00:40:17;;;;;;;23.35;4.22;;;;;;;7.82;100.00;102682.06;5116208;27;20023;-74
2023/05/17 00:42:43;;;;;;;18.73;4.00;;;;;;;7.81;100.00;102675.91;5134707;27;20057;-74
2023/05/17 00:45:09;;;;;;;18.77;4.45;;;;;;;7.80;100.00;102681.28;5134589;27;20414;-76
2023/05/17 00:47:35;;;;;;;24.48;5.07;;;;;;;7.81;100.00;102675.03;5134724;27;20034;-74
2023/05/17 00:50:00;;;;;;;13.10;3.55;;;;;;;7.79;100.00;102676.91;5134596;27;20413;-74
2023/05/17 00:52:26;;;;;;;9.98;3.38;;;;;;;7.79;100.00;102679.56;5135004;27;20034;-74
2023/05/17 00:54:51;;;;;;;18.85;3.70;;;;;;;7.76;100.00;102685.88;5134489;27;20371;-74
2023/05/17 00:57:17;;;;;;;17.98;4.20;;;;;;;7.77;100.00;102683.13;5134905;27;20443;-74
2023/05/17 00:59:43;;;;;;;21.30;4.50;;;;;;;7.73;100.00;102671.00;5134320;27;20031;-74
2023/05/17 01:02:10;;;;;;;20.95;4.63;;;;;;;7.71;100.00;102669.34;5134305;27;20035;-74
2023/05/17 01:04:37;;;;;;;18.70;3.67;;;;;;;7.67;100.00;102667.78;5134947;27;20084;-74
2023/05/17 01:07:02;;;;;;;14.50;4.05;;;;;;;7.66;100.00;102674.00;5134571;27;20035;-75
2023/05/17 01:09:29;;;;;;;13.48;3.70;;;;;;;7.62;100.00;102670.66;5135191;27;20378;-74
2023/05/17 01:12:14;;;;;;;21.48;4.10;;;;;;;7.60;100.00;102667.22;5133091;27;20031;-75
2023/05/17 01:14:54;;;;;;;18.27;4.18;;;;;;;7.57;100.00;102668.22;5134361;27;20033;-75
2023/05/17 01:17:40;;;;;;;24.98;4.07;;;;;;;7.57;100.00;102659.44;5133985;27;20035;-76
2023/05/17 01:20:28;;;;;;;18.58;3.97;;;;;;;7.56;100.00;102665.66;5134035;27;20085;-75
2023/05/17 01:23:30;;;;;;;18.73;4.43;;;;;;;7.60;100.00;102669.88;5134739;27;20432;-75
2023/05/17 01:26:11;;;;;;;23.10;4.20;;;;;;;7.64;100.00;102667.94;5133888;27;20474;-75
2023/05/17 01:28:38;;;;;;;17.23;3.75;;;;;;;7.70;100.00;102672.91;5134178;28;20039;-76
2023/05/17 01:31:04;;;;;;;16.25;4.32;;;;;;;7.78;100.00;102668.13;5134750;27;20232;-75
2023/05/17 01:33:30;;;;;;;15.10;3.90;;;;;;;7.82;100.00;102661.72;5133947;27;20035;-76
2023/05/17 01:35:55;;;;;;;16.10;4.28;;;;;;;7.83;100.00;102678.50;5134200;27;20039;-75
2023/05/17 01:38:21;;;;;;;20.77;4.55;;;;;;;7.80;100.00;102679.50;5134649;27;20394;-76
2023/05/17 01:41:09;;;;;;;15.77;4.15;;;;;;;7.77;100.00;102675.19;5134374;27;20420;-74
2023/05/17 01:43:53;;;;;;;9.75;3.40;;;;;;;7.77;100.00;102674.34;5133012;28;20087;-75
2023/05/17 01:46:41;;;;;;;16.58;4.72;;;;;;;7.80;100.00;102676.00;5134160;27;20076;-75
2023/05/17 01:49:29;;;;;;;15.18;3.63;;;;;;;7.82;100.00;102671.47;5134270;27;20031;-75
2023/05/17 01:52:10;;;;;;;17.88;4.05;;;;;;;7.89;100.00;102672.88;5133750;28;20047;-75
2023/05/17 01:54:41;;;;;;;24.40;4.35;;;;;;;7.93;100.00;102677.94;5133823;27;20027;-75
2023/05/17 01:57:08;;;;;;;21.67;4.18;;;;;;;8.00;100.00;102677.63;5134318;27;20034;-75
2023/05/17 01:59:37;;;;;;;19.05;3.75;;;;;;;8.06;100.00;102679.97;5133809;27;20034;-75
2023/05/17 02:02:07;;;;;;;19.80;4.22;;;;;;;8.11;100.00;102677.97;5133137;28;20076;-75
2023/05/17 02:04:33;;;;;;;22.25;4.78;;;;;;;8.19;100.00;102680.22;5133643;27;20467;-75
2023/05/17 02:06:59;;;;;;;19.58;4.25;;;;;;;8.25;100.00;102680.75;5132428;28;20498;-75
2023/05/17 02:09:24;;;;;;;14.50;3.80;;;;;;;8.31;100.00;102674.28;5134296;28;20134;-76
2023/05/17 02:11:49;;;;;;;13.73;4.05;;;;;;;8.37;100.00;102673.09;5133584;28;20417;-75
2023/05/17 02:14:15;;;;;;;13.00;3.70;;;;;;;8.42;100.00;102671.94;5133906;27;20027;-75
2023/05/17 02:16:40;;;;;;;12.80;3.95;;;;;;;8.45;100.00;102674.47;5133635;27;20057;-75
2023/05/17 02:19:07;;;;;;;19.55;4.13;;;;;;;8.51;100.00;102677.72;5134341;28;20450;-76
2023/05/17 02:21:33;;;;;;;12.32;3.80;;;;;;;8.52;100.00;102672.31;5132047;28;20110;-75
2023/05/17 02:23:59;;;;;;;20.88;4.18;;;;;;;8.53;100.00;102663.44;5132285;28;20110;-74
2023/05/17 02:26:24;;;;;;;12.70;3.53;;;;;;;8.56;100.00;102670.38;5133827;28;20459;-75
2023/05/17 02:28:49;;;;;;;15.55;3.85;;;;;;;8.55;100.00;102671.31;5131864;28;20105;-75
2023/05/17 02:31:15;;;;;;;14.60;3.55;;;;;;;8.55;100.00;102669.50;5133895;28;20031;-74
2023/05/17 02:33:40;;;;;;;19.40;3.30;;;;;;;8.55;100.00;102671.31;5132044;27;20031;-75
2023/05/17 02:36:05;;;;;;;19.55;3.88;;;;;;;8.54;100.00;102683.72;5135540;27;20035;-74
2023/05/17 02:38:31;;;;;;;18.15;3.80;;;;;;;8.57;100.00;102677.38;5135880;27;20066;-74
2023/05/17 02:40:56;;;;;;;13.07;3.53;;;;;;;8.55;100.00;102685.44;5136891;27;20042;-74
2023/05/17 02:43:22;;;;;;;13.82;3.70;;;;;;;8.53;100.00;102689.97;5137238;27;20080;-76
2023/05/17 02:45:47;;;;;;;19.50;4.50;;;;;;;8.54;100.00;102689.03;5136698;27;20161;-74
2023/05/17 02:48:12;;;;;;;15.20;3.80;;;;;;;8.55;100.00;102689.88;5137156;27;20038;-75
2023/05/17 02:50:38;;;;;;;15.98;3.92;;;;;;;8.54;100.00;102681.06;5136909;27;20046;-75
2023/05/17 02:53:03;;;;;;;14.90;3.92;;;;;;;8.56;100.00;102683.66;5136625;27;20512;-75
2023/05/17 02:55:28;;;;;;;19.92;4.38;;;;;;;8.56;100.00;102689.81;5136771;27;20402;-75
2023/05/17 02:57:54;;;;;;;17.67;3.90;;;;;;;8.54;100.00;102691.69;5137060;27;20027;-74
2023/05/17 03:00:20;;;;;;;18.60;4.25;;;;;;;8.55;100.00;102693.38;5136651;27;20091;-74
2023/05/17 03:02:45;;;;;;;19.75;4.25;;;;;;;8.58;100.00;102689.72;5136496;27;20031;-75
2023/05/17 03:05:10;;;;;;;18.05;4.07;;;;;;;8.61;100.00;102689.56;5169992;27;20027;-74
2023/05/17 03:07:36;;;;;;;23.15;4.35;;;;;;;8.63;100.00;102691.19;5135886;27;20055;-74
2023/05/17 03:10:03;;;;;;;9.18;3.05;;;;;;;8.64;100.00;102692.03;5136643;27;20086;-75
2023/05/17 03:12:28;;;;;;;18.88;4.78;;;;;;;8.62;100.00;102688.63;5136791;27;20043;-75
2023/05/17 03:14:54;;;;;;;13.98;3.95;;;;;;;8.60;100.00;102693.16;5136583;27;20459;-75
2023/05/17 03:17:19;;;;;;;17.13;4.07;;;;;;;8.55;100.00;102695.19;5136152;27;20466;-74
2023/05/17 03:19:44;;;;;;;13.68;4.13;;;;;;;8.45;100.00;102692.19;5134861;27;20160;-75
2023/05/17 03:22:10;;;;;;;13.38;3.88;;;;;;;8.35;100.00;102691.75;5135258;27;20034;-75
2023/05/17 03:24:35;;;;;;;17.60;4.00;;;;;;;8.26;100.00;102697.53;5136270;27;20072;-74
2023/05/17 03:27:00;;;;;;;15.18;3.50;;;;;;;8.20;100.00;102700.50;5136206;27;20027;-74
2023/05/17 03:29:26;;;;;;;14.27;3.78;;;;;;;8.12;100.00;102704.41;5136168;27;20076;-75
2023/05/17 03:31:51;;;;;;;22.20;4.30;;;;;;;8.08;100.00;102699.31;5136137;27;20039;-75
2023/05/17 03:34:16;;;;;;;17.10;3.95;;;;;;;8.03;100.00;102701.34;5136213;27;20033;-75
2023/05/17 03:36:42;;;;;;;15.00;3.75;;;;;;;7.99;100.00;102711.25;5135950;27;20348;-75
2023/05/17 03:39:07;;;;;;;12.63;3.38;;;;;;;7.99;100.00;102713.91;5135884;27;20029;-75
2023/05/17 03:41:33;;;;;;;21.58;3.97;;;;;;;8.05;100.00;102710.09;5136367;27;20023;-74
2023/05/17 03:43:58;;;;;;;18.88;4.00;;;;;;;8.11;100.00;102712.44;5136696;27;20031;-74
2023/05/17 03:46:24;;;;;;;15.70;3.55;;;;;;;8.18;100.00;102718.25;5135374;27;20027;-74
2023/05/17 03:48:50;;;;;;;18.45;3.92;;;;;;;8.22;100.00;102717.19;5135740;27;20475;-74
2023/05/17 03:51:15;;;;;;;15.52;3.45;;;;;;;8.22;100.00;102715.38;5136184;27;20083;-74
2023/05/17 03:53:42;;;;;;;14.23;3.03;;;;;;;8.18;100.00;102719.16;5133932;27;20490;-74
2023/05/17 03:56:08;;;;;;;13.45;3.05;;;;;;;8.11;100.00;102723.88;5136047;27;20042;-74
2023/05/17 03:58:33;;;;;;;12.35;2.88;;;;;;;8.01;100.00;102727.94;5136014;27;20059;-75
2023/05/17 04:00:59;;;;;;;14.98;3.20;;;;;;;7.96;100.00;102735.25;5135621;27;20115;-74
2023/05/17 04:03:24;;;;;;;17.58;3.40;;;;;;;7.93;100.00;102732.75;5135338;27;20387;-74
2023/05/17 04:05:50;;;;;;;14.32;2.75;;;;;;;7.88;100.00;102733.00;5135302;27;20031;-74
2023/05/17 04:08:15;;;;;;;12.90;3.10;;;;;;;7.82;100.00;102727.97;5135042;27;20088;-74
2023/05/17 04:10:41;;;;;;;19.98;3.10;;;;;;;7.75;100.00;102732.72;5135182;27;20031;-75
2023/05/17 04:13:09;;;;;;;15.55;3.00;;;;;;;7.66;100.00;102737.59;5135446;27;20515;-75
2023/05/17 04:15:35;;;;;;;16.30;2.78;;;;;;;7.55;100.00;102739.00;5135537;27;20473;-75
2023/05/17 04:18:01;;;;;;;17.92;3.20;;;;;;;7.46;100.00;102736.75;5135306;27;20467;-75
2023/05/17 04:20:26;;;;;;;17.20;3.00;;;;;;;7.37;100.00;102745.97;5135025;27;20037;-75
2023/05/17 04:22:51;;;;;;;12.75;2.40;;;;;;;7.29;100.00;102753.44;5135713;27;20024;-76
2023/05/17 04:25:17;;;;;;;16.40;3.63;;;;;;;7.21;100.00;102747.63;5134951;27;20032;-76
2023/05/17 04:27:43;;;;;;;15.32;3.13;;;;;;;7.13;100.00;102763.84;5135373;27;20134;-75
2023/05/17 04:30:09;;;;;;;12.75;2.70;;;;;;;7.10;100.00;102766.66;5134778;27;20046;-75
2023/05/17 04:32:35;;;;;;;21.13;3.03;;;;;;;7.05;100.00;102769.50;5134939;27;20035;-75
2023/05/17 04:35:00;;;;;;;14.68;3.60;;;;;;;7.05;100.00;102768.66;5135110;27;20439;-75
2023/05/17 04:37:26;;;;;;;14.15;2.85;;;;;;;7.05;100.00;102780.09;5133140;27;20054;-75
2023/05/17 04:39:52;;;;;;;14.13;2.88;;;;;;;7.03;100.00;102778.44;5134726;27;20419;-75
2023/05/17 04:42:17;;;;;;;16.55;3.00;;;;;;;7.00;100.00;102781.22;5134454;27;20462;-75
2023/05/17 04:44:43;;;;;;;20.20;2.85;;;;;;;6.97;100.00;102792.81;5134055;27;20113;-75
2023/05/17 04:47:08;;;;;;;17.55;3.08;;;;;;;6.97;100.00;102795.47;5132943;27;20039;-75
2023/05/17 04:49:34;;;;;;;16.75;3.42;;;;;;;7.03;100.00;102796.97;5133396;27;20027;-74
2023/05/17 04:52:00;;;;;;;15.40;2.85;;;;;;;7.07;100.00;102798.56;5134703;27;20096;-74
2023/05/17 04:54:25;;;;;;;11.40;2.70;;;;;;;7.11;100.00;102805.44;5134328;27;20034;-75
2023/05/17 04:56:51;;;;;;;20.02;2.88;;;;;;;7.14;100.00;102807.94;5134095;27;20463;-74
2023/05/17 04:59:16;;;;;;;18.40;3.25;;;;;;;7.18;100.00;102806.88;5134379;27;20136;-75
2023/05/17 05:01:41;;;;;;;18.10;2.85;;;;;;;7.22;100.00;102813.75;5134233;27;20034;-75
2023/05/17 05:04:07;;;;;;;13.20;2.78;;;;;;;7.25;100.00;102812.75;5134976;27;20114;-75
2023/05/17 05:06:33;;;;;;;15.68;3.50;;;;;;;7.29;100.00;102811.69;5134653;27;20081;-75
2023/05/17 05:08:59;;;;;;;20.40;3.80;;;;;;;7.35;100.00;102814.06;5134208;27;20055;-75
2023/05/17 05:11:25;;;;;;;11.82;3.47;;;;;;;7.43;100.00;102816.34;5134105;27;20100;-74
2023/05/17 05:13:50;;;;;;;14.88;3.30;;;;;;;7.49;100.00;102817.88;5133984;27;20035;-76
2023/05/17 05:16:16;;;;;;;20.23;2.50;;;;;;;7.57;100.00;102829.84;5134252;27;20124;-75
2023/05/17 05:18:41;;;;;;;19.23;3.78;;;;;;;7.64;100.00;102829.53;5132531;27;20027;-74
2023/05/17 05:21:06;;;;;;;17.20;3.63;;;;;;;7.69;100.00;102836.34;5134621;27;20027;-75
2023/05/17 05:23:32;;;;;;;24.00;3.40;;;;;;;7.76;100.00;102832.50;5134466;27;20027;-75
2023/05/17 05:25:57;;;;;;;15.27;3.45;;;;;;;7.82;100.00;102838.44;5134044;27;20027;-76
2023/05/17 05:28:22;;;;;;;19.52;2.95;;;;;;;7.87;100.00;102831.13;5134078;27;20440;-75
2023/05/17 05:30:48;;;;;;;15.60;2.45;;;;;;;7.93;100.00;102838.78;5134585;27;20344;-76
2023/05/17 05:33:13;;;;;;;17.40;2.88;;;;;;;8.01;100.00;102838.41;5134049;27;20039;-76
2023/05/17 05:35:39;;;;;;;20.58;3.17;;;;;;;8.08;100.00;102842.50;5134226;27;20061;-75
2023/05/17 05:38:04;;;;;;;15.20;3.13;;;;;;;8.15;100.00;102845.69;5133995;28;20062;-75
2023/05/17 05:40:29;;;;;;;19.63;2.78;;;;;;;8.23;100.00;102851.50;5134116;27;20477;-75
2023/05/17 05:42:55;;;;;;;12.93;2.30;;;;;;;8.33;100.00;102851.91;5134139;27;20031;-75
2023/05/17 05:45:20;;;;;;;18.02;3.30;;;;;;;8.41;100.00;102863.84;5132807;28;20032;-75
2023/05/17 05:47:46;;;;;;;15.80;2.75;;;;;;;8.47;100.00;102863.59;5133598;28;20536;-75
2023/05/17 05:50:11;;;;;;;13.82;2.60;;;;;;;8.52;100.00;102867.81;5132739;28;20119;-75
2023/05/17 05:52:37;;;;;;;19.52;2.53;;;;;;;8.59;100.00;102864.78;5133649;28;20023;-75
2023/05/17 05:55:03;;;;;;;23.35;3.28;;;;;;;8.69;100.00;102867.84;5132522;28;20083;-75
2023/05/17 05:57:28;;;;;;;15.48;2.92;;;;;;;8.78;100.00;102872.66;5134036;27;20034;-75
2023/05/17 05:59:53;;;;;;;15.40;3.05;;;;;;;8.89;100.00;102874.78;5133239;28;20382;-76
2023/05/17 06:02:20;;;;;;;20.33;2.83;;;;;;;8.98;100.00;102878.75;5134440;27;20050;-76
2023/05/17 06:04:47;;;;;;;18.52;2.92;;;;;;;9.01;100.00;102881.25;5134912;27;20035;-77
2023/05/17 06:07:13;;;;;;;15.38;2.55;;;;;;;9.01;100.00;102883.91;5134622;27;20131;-75
2023/05/17 06:09:39;;;;;;;20.88;2.60;;;;;;;9.05;100.00;102888.13;5135665;27;20055;-75
2023/05/17 06:12:04;;;;;;;20.30;2.70;;;;;;;9.09;100.00;102889.69;5136643;27;20042;-75
2023/05/17 06:14:30;;;;;;;19.15;3.20;;;;;;;9.07;100.00;102885.41;5136748;27;20121;-75
2023/05/17 06:16:55;;;;;;;14.18;2.35;;;;;;;9.02;100.00;102884.75;5138427;27;20023;-75
2023/05/17 06:19:21;;;;;;;15.77;3.13;;;;;;;8.99;100.00;102893.75;5137916;27;20031;-75
2023/05/17 06:21:46;;;;;;;16.73;2.58;;;;;;;8.96;100.00;102899.22;5137561;27;20027;-77
2023/05/17 06:24:11;;;;;;;13.15;2.42;;;;;;;8.94;100.00;102895.78;5137533;27;20498;-75
2023/05/17 06:26:37;;;;;;;13.23;2.63;;;;;;;8.95;100.00;102902.81;5136307;27;20117;-76
2023/05/17 06:29:02;;;;;;;18.05;2.88;;;;;;;8.96;100.00;102907.19;5137439;27;20058;-76
2023/05/17 06:31:28;;;;;;;19.17;3.08;;;;;;;8.96;100.00;102901.88;5136859;27;20064;-75
2023/05/17 06:33:53;;;;;;;15.45;2.38;;;;;;;8.94;100.00;102903.75;5135772;27;20038;-76
2023/05/17 06:36:18;;;;;;;20.40;2.75;;;;;;;8.95;100.00;102898.34;5137347;27;20031;-75
2023/05/17 06:38:44;;;;;;;14.63;2.38;;;;;;;9.06;100.00;102907.56;5137222;27;20486;-75
2023/05/17 06:41:09;;;;;;;14.38;2.85;;;;;;;9.13;100.00;102906.31;5135949;27;20043;-75
2023/05/17 06:43:35;;;;;;;20.50;2.80;;;;;;;9.13;100.00;102906.31;5137219;27;20118;-76
2023/05/17 06:46:00;;;;;;;16.33;2.40;;;;;;;9.11;100.00;102908.22;5137763;27;20027;-76
2023/05/17 06:48:26;;;;;;;18.70;3.58;;;;;;;9.12;100.00;102907.25;5136162;27;20035;-76
2023/05/17 06:50:51;;;;;;;12.93;2.90;;;;;;;9.25;100.00;102910.13;5136740;27;20073;-76
2023/05/17 06:53:16;;;;;;;16.73;2.85;;;;;;;9.40;100.00;102911.97;5136958;27;20057;-75
2023/05/17 06:55:42;;;;;;;16.60;2.47;;;;;;;9.73;100.00;102908.47;5137198;27;20463;-76
2023/05/17 06:58:08;;;;;;;18.05;2.95;;;;;;;10.03;100.00;102913.06;5136453;27;20030;-76
2023/05/17 07:00:33;;;;;;;13.10;2.70;;;;;;;10.34;100.00;102927.34;5137661;27;20039;-76
2023/05/17 07:02:59;;;;;;;14.48;2.63;;;;;;;10.54;100.00;102920.91;5137261;27;20451;-75
2023/05/17 07:05:24;;;;;;;14.18;2.85;;;;;;;10.66;100.00;102930.84;5135851;27;20035;-76
2023/05/17 07:07:50;;;;;;;20.30;3.40;;;;;;;10.76;100.00;102932.03;5136746;27;20061;-76
2023/05/17 07:10:15;;;;;;;17.52;2.72;;;;;;;10.80;100.00;102923.84;5137080;27;20140;-76
2023/05/17 07:12:41;;;;;;;16.92;3.50;;;;;;;10.70;100.00;102932.38;5135217;27;20038;-75
2023/05/17 07:15:06;;;;;;;14.77;3.00;;;;;;;10.68;100.00;102931.59;5136446;27;20071;-76
2023/05/17 07:17:32;;;;;;;19.67;2.70;;;;;;;10.79;100.00;102928.31;5136405;27;20050;-76
2023/05/17 07:19:58;;;;;;;12.77;2.50;;;;;;;10.89;100.00;102932.13;5136049;27;20061;-76
2023/05/17 07:22:23;;;;;;;19.25;2.53;;;;;;;11.09;100.00;102936.31;5136864;27;20402;-76
2023/05/17 07:24:49;;;;;;;14.82;3.63;;;;;;;11.29;100.00;102947.56;5136187;27;20395;-76
2023/05/17 07:27:15;;;;;;;14.98;2.20;;;;;;;11.57;100.00;102940.53;5135028;27;20034;-76
2023/05/17 07:29:41;;;;;;;14.90;2.25;;;;;;;11.79;100.00;102940.09;5134895;27;20027;-75
2023/05/17 07:32:06;;;;;;;8.43;1.80;;;;;;;11.93;100.00;102945.44;5136149;27;20035;-75
2023/05/17 07:34:32;;;;;;;14.60;1.92;;;;;;;12.11;100.00;102955.91;5135434;27;20060;-76
2023/05/17 07:36:57;;;;;;;17.83;2.25;;;;;;;12.26;100.00;102949.59;5135657;27;20051;-77
2023/05/17 07:39:23;;;;;;;13.63;2.40;;;;;;;12.43;100.00;102958.31;5136381;27;20035;-76
2023/05/17 07:41:48;;;;;;;15.35;2.20;;;;;;;12.61;100.00;102956.25;5134646;27;20035;-76
2023/05/17 07:44:13;;;;;;;16.35;2.50;;;;;;;12.67;100.00;102961.19;5135471;27;20031;-76
2023/05/17 07:46:39;;;;;;;15.68;2.30;;;;;;;12.49;100.00;102966.78;5134643;27;20039;-75
2023/05/17 07:49:04;;;;;;;13.98;2.00;;;;;;;12.62;100.00;102971.34;5135865;27;20028;-76
2023/05/17 07:51:30;;;;;;;14.07;2.65;;;;;;;12.64;100.00;102964.06;5135869;27;20039;-77
2023/05/17 07:53:56;;;;;;;11.27;2.17;;;;;;;12.65;100.00;102963.97;5136348;27;20409;-76
2023/05/17 07:56:21;;;;;;;16.05;2.05;;;;;;;12.49;99.44;102971.28;5133921;27;20039;-76
2023/05/17 07:58:47;;;;;;;10.65;1.80;;;;;;;12.33;100.00;102971.41;5136229;27;20035;-76
2023/05/17 08:01:12;;;;;;;7.32;1.85;;;;;;;12.20;100.00;102974.00;5134298;27;20370;-75
2023/05/17 08:03:38;;;;;;;12.35;3.00;;;;;;;12.16;100.00;102973.34;5135572;27;20130;-76
2023/05/17 08:06:04;;;;;;;13.13;1.70;;;;;;;12.27;100.00;102974.47;5134095;27;20038;-76
2023/05/17 08:08:29;;;;;;;12.05;1.85;;;;;;;12.40;100.00;102971.88;5133985;27;20043;-76
2023/05/17 08:10:54;;;;;;;11.45;1.80;;;;;;;12.51;100.00;102974.72;5135769;27;20503;-76
2023/05/17 08:13:20;;;;;;;6.90;1.85;;;;;;;12.69;100.00;102983.34;5116942;27;20033;-76
2023/05/17 08:15:45;;;;;;;11.45;2.25;;;;;;;12.84;100.00;102976.97;5134712;27;20054;-75
2023/05/17 08:18:10;;;;;;;8.52;1.67;;;;;;;12.92;100.00;102987.16;5135095;27;20043;-76
2023/05/17 08:20:36;;;;;;;10.63;2.15;;;;;;;13.07;97.68;102987.94;5135489;27;20027;-76
2023/05/17 08:23:02;;;;;;;12.88;2.00;;;;;;;13.20;88.68;102983.47;5135324;27;20487;-76
2023/05/17 08:25:27;;;;;;;5.93;1.65;;;;;;;13.32;85.24;102988.97;5117231;27;20095;-77
2023/05/17 08:27:52;;;;;;;9.52;1.75;;;;;;;13.19;81.76;102989.78;5135645;27;20043;-76
2023/05/17 08:30:18;;;;;;;9.68;1.92;;;;;;;13.20;85.43;102991.50;5135535;27;20039;-76
2023/05/17 08:32:44;;;;;;;17.83;2.28;;;;;;;13.33;83.14;102988.84;5134687;27;20455;-76
2023/05/17 08:35:10;;;;;;;6.85;1.48;;;;;;;13.25;79.35;102985.00;5134889;27;20364;-76
2023/05/17 08:37:35;;;;;;;5.68;1.17;;;;;;;13.32;71.46;102978.25;5134402;27;20023;-76
2023/05/17 08:40:01;;;;;;;9.15;1.60;;;;;;;13.32;72.37;102983.63;5133267;27;20542;-76
2023/05/17 08:42:28;;;;;;;8.93;1.90;;;;;;;13.36;72.08;102990.47;5134353;27;20474;-76
2023/05/17 08:44:54;;;;;;;6.80;1.50;;;;;;;13.42;76.32;102989.19;5134481;27;20038;-76
2023/05/17 08:47:28;;;;;;;8.20;2.10;;;;;;;13.55;69.31;102982.03;5134735;27;20031;-77
2023/05/17 08:49:59;;;;;;;10.93;1.75;;;;;;;14.04;73.20;102985.78;5135708;27;20031;-76
2023/05/17 08:52:30;;;;;;;10.65;1.70;;;;;;;14.25;65.95;102986.88;5135514;27;20117;-77
2023/05/17 08:54:55;;;;;;;9.50;1.83;;;;;;;14.53;65.15;102984.03;5134713;27;20457;-77
2023/05/17 08:57:23;;;;;;;12.60;2.10;;;;;;;14.84;64.45;102982.66;5133161;27;20141;-75
2023/05/17 08:59:50;;;;;;;5.95;1.52;;;;;;;15.06;62.35;102994.41;5133401;27;20019;-76
2023/05/17 09:02:16;;;;;;;13.00;2.08;;;;;;;15.18;60.77;102987.28;5134227;27;20107;-76
2023/05/17 09:04:42;;;;;;;7.22;1.70;;;;;;;15.54;59.18;102997.00;5134171;27;20117;-76
2023/05/17 09:07:07;;;;;;;10.13;1.70;;;;;;;16.04;58.85;102985.97;5133043;27;20038;-76
2023/05/17 09:09:33;;;;;;;11.85;2.10;;;;;;;16.71;59.50;102987.66;5134516;27;20051;-77
2023/05/17 09:11:58;;;;;;;10.40;2.13;;;;;;;17.35;52.79;102996.69;5134411;27;20050;-75
2023/05/17 09:14:24;;;;;;;11.55;1.70;;;;;;;17.37;54.63;102996.56;5134312;27;20035;-77
2023/05/17 09:16:56;;;;;;;7.85;1.58;;;;;;;17.52;52.08;102991.69;5134250;27;20035;-76
2023/05/17 09:19:22;;;;;;;10.07;1.90;;;;;;;17.65;52.06;102991.50;5134272;27;20441;-76
2023/05/17 09:21:48;;;;;;;7.95;1.67;;;;;;;18.19;52.39;102993.00;5134103;27;20027;-76
2023/05/17 09:24:13;;;;;;;10.05;1.98;;;;;;;18.30;51.23;102987.53;5132740;27;20035;-75
2023/05/17 09:26:44;;;;;;;8.25;2.08;;;;;;;18.01;48.91;102995.50;5133673;27;20031;-76
2023/05/17 09:29:14;;;;;;;5.82;1.73;;;;;;;17.98;48.22;102988.53;5134095;27;20126;-77
2023/05/17 09:31:40;;;;;;;9.33;2.63;;;;;;;18.15;48.54;102989.75;5134484;27;20075;-76
2023/05/17 09:34:06;;;;;;;6.30;1.83;;;;;;;18.12;48.39;102987.31;5134232;27;20031;-77
2023/05/17 09:36:34;;;;;;;6.03;1.48;;;;;;;18.32;46.20;102993.59;5132769;27;20054;-76
2023/05/17 09:39:03;;;;;;;8.23;1.77;;;;;;;18.79;44.57;102994.81;5133699;27;20084;-76
2023/05/17 09:41:32;;;;;;;8.20;1.90;;;;;;;18.53;45.08;102994.53;5132639;28;20522;-76
2023/05/17 09:44:08;;;;;;;6.53;1.98;;;;;;;18.73;46.71;102984.59;5135011;27;20027;-77
2023/05/17 09:46:34;;;;;;;4.18;1.50;;;;;;;19.27;44.14;102988.59;5138770;27;20094;-77
2023/05/17 09:49:02;;;;;;;9.38;2.13;;;;;;;19.18;44.66;102989.44;5137966;27;20409;-79
2023/05/17 09:51:35;;;;;;;10.77;1.83;;;;;;;19.10;43.02;102998.25;5138176;27;20034;-76
2023/05/17 09:54:01;;;;;;;12.43;1.77;;;;;;;19.12;42.29;102995.41;5138573;27;20340;-76
2023/05/17 09:56:30;;;;;;;12.30;1.85;;;;;;;19.15;43.21;103001.38;5138360;27;20027;-76
2023/05/17 09:58:57;;;;;;;4.65;1.10;;;;;;;18.73;43.53;102998.91;5138098;27;20403;-76
2023/05/17 10:01:26;;;;;;;10.40;2.35;;;;;;;18.84;42.87;103004.19;5137872;27;20470;-76
2023/05/17 10:03:53;;;;;;;8.27;1.55;;;;;;;19.24;42.71;103006.91;5138361;27;20374;-77
2023/05/17 10:06:21;;;;;;;10.05;1.90;;;;;;;19.44;43.14;103007.72;5137857;27;20067;-76
2023/05/17 10:08:52;;;;;;;6.85;1.70;;;;;;;19.83;41.41;103007.66;5137690;27;20055;-77
2023/05/17 10:11:23;;;;;;;7.82;1.27;;;;;;;19.85;40.52;103003.78;5137991;27;20027;-76
2023/05/17 10:14:00;;;;;;;8.63;1.55;;;;;;;18.90;41.43;103005.50;5137413;27;20026;-76
2023/05/17 10:16:27;;;;;;;9.60;1.90;;;;;;;18.95;41.93;102999.69;5137660;27;20031;-76
2023/05/17 10:18:53;;;;;;;7.15;1.83;;;;;;;19.40;42.07;103006.31;5137814;27;20110;-77
2023/05/17 10:21:21;;;;;;;10.05;1.73;;;;;;;19.11;42.66;103010.75;5137608;27;20566;-77
2023/05/17 10:23:48;;;;;;;5.13;1.63;;;;;;;19.16;42.26;103008.47;5138111;27;20084;-77
2023/05/17 10:26:15;;;;;;;9.18;1.77;;;;;;;18.51;42.86;103005.41;5138092;27;20034;-77
2023/05/17 10:28:41;;;;;;;12.07;1.85;;;;;;;18.66;42.45;103006.72;5137697;27;20094;-75
2023/05/17 10:31:07;;;;;;;9.35;1.80;;;;;;;19.02;44.37;103009.75;5137386;27;20031;-75
2023/05/17 10:33:32;;;;;;;8.55;1.90;;;;;;;19.17;42.54;103012.03;5137996;27;20027;-78
2023/05/17 10:36:01;;;;;;;5.97;1.52;;;;;;;19.82;41.79;103011.34;5137078;27;20105;-75
2023/05/17 10:38:26;;;;;;;14.35;1.88;;;;;;;19.99;41.02;103010.56;5135919;27;20051;-76
2023/05/17 10:40:53;;;;;;;4.95;1.63;;;;;;;19.00;44.87;103006.38;5135934;27;20058;-76
2023/05/17 10:43:20;;;;;;;9.23;1.98;;;;;;;19.78;43.59;103004.53;5137306;27;20043;-76
2023/05/17 10:45:45;;;;;;;7.65;2.00;;;;;;;19.65;42.84;102994.88;5136202;27;20363;-77
2023/05/17 10:48:15;;;;;;;11.05;2.10;;;;;;;20.12;42.94;103010.19;5138273;27;20031;-77
2023/05/17 10:50:45;;;;;;;9.60;1.77;;;;;;;20.36;42.47;103006.97;5137549;27;20042;-76
2023/05/17 10:53:10;;;;;;;5.55;1.50;;;;;;;20.35;43.40;103007.97;5137185;27;20114;-77
2023/05/17 10:55:41;;;;;;;13.70;2.17;;;;;;;20.54;42.50;103012.41;5137512;27;20151;-77
2023/05/17 10:58:09;;;;;;;8.82;1.85;;;;;;;20.34;41.17;103011.66;5138046;27;20054;-77
2023/05/17 11:00:53;;;;;;;9.73;2.15;;;;;;;20.32;42.83;103013.66;5136840;27;20024;-76
2023/05/17 11:03:24;;;;;;;11.63;2.65;;;;;;;20.52;42.12;103010.84;5136880;27;20124;-76
2023/05/17 11:06:20;;;;;;;12.35;2.13;;;;;;;20.89;41.52;103018.00;5137150;27;20031;-76
2023/05/17 11:09:05;;;;;;;7.43;1.60;;;;;;;20.88;40.71;103010.88;5136205;27;20440;-75
2023/05/17 11:11:31;;;;;;;5.05;1.75;;;;;;;21.03;40.58;103025.56;5137323;27;20027;-75
2023/05/17 11:13:56;;;;;;;12.73;1.70;;;;;;;20.83;40.53;103030.28;5135785;27;20031;-77
2023/05/17 11:16:32;;;;;;;6.47;1.58;;;;;;;21.07;39.61;103018.00;5135546;27;20118;-77